Elettra — H9AK — position and weather

sailwx.info

Track history (hours):
 
Tides and Currents Weather Stations Pressure Air Temp Water Temp Dewpoint Dewpoint Depression Visibility Wind Speed Wind Dir Waves Ship Positions

Elettra

Last reported at 2015-Feb-12 07:14 UTC. Time now 2015-Feb-27 21:11 UTC.
Position S 27°46' E 154°04'.
Warning: this ship's position is 15 days out of date.

Length 254 m; draft 13.6 m.

Type: Ship. MMSI: 371188000.

Date/timePositionNaut miles runAvg speedWind from/ knotsBaromVisibWave heightAir tempDewpointWater temp
2015-Feb-12 07:14S 27°46' E 154°04'292 8.7
2015-Feb-10 21:33S 32°31' E 152°48'1010.4
2015-Feb-10 20:33S 32°41' E 152°44'1110.7
2015-Feb-10 19:33S 32°46' E 152°33'1110.6
2015-Feb-10 18:33S 32°51' E 152°22'1010.0
2015-Feb-10 17:33S 32°56' E 152°11'1010.3
2015-Feb-10 16:33S 32°57' E 151°59'9 8.0
2015-Feb-10 15:29S 32°55' E 151°49'3 3.0
2015-Feb-10 14:33S 32°54' E 151°46'1 1.3
2015-Feb-10 13:33S 32°53' E 151°45'0 0.0
2015-Feb-10 12:30S 32°53' E 151°45'0 0.0
2015-Feb-10 11:33S 32°53' E 151°45'0 0.0
2015-Feb-10 10:30S 32°53' E 151°45'0 0.0
2015-Feb-10 09:33S 32°53' E 151°45'0 0.0
2015-Feb-10 08:30S 32°53' E 151°45'0 0.0
2015-Feb-10 07:33S 32°53' E 151°45'0 0.0
2015-Feb-10 06:30S 32°53' E 151°45'0 0.0
2015-Feb-10 05:30S 32°53' E 151°45'0 0.0
2015-Feb-10 04:30S 32°53' E 151°45'0 0.0
2015-Feb-10 03:33S 32°53' E 151°45'0 0.0
2015-Feb-10 02:30S 32°53' E 151°45'0 0.0
2015-Feb-10 01:33S 32°53' E 151°45'0 0.0
2015-Feb-10 00:33S 32°53' E 151°45'0 0.0
2015-Feb-09 23:30S 32°53' E 151°45'0 0.0
2015-Feb-09 22:33S 32°53' E 151°45'0 0.0
2015-Feb-09 21:33S 32°53' E 151°45'0 0.0
2015-Feb-09 20:33S 32°53' E 151°45'0 0.0
2015-Feb-09 19:30S 32°53' E 151°45'0 0.0
2015-Feb-09 18:30S 32°53' E 151°45'0 0.0
2015-Feb-09 17:33S 32°53' E 151°45'0 0.0
2015-Feb-09 16:33S 32°53' E 151°45'0 0.0
2015-Feb-09 15:33S 32°53' E 151°45'0 0.0
2015-Feb-09 14:30S 32°53' E 151°45'0 0.0
2015-Feb-09 13:30S 32°53' E 151°45'0 0.0
2015-Feb-09 12:33S 32°53' E 151°45'0 0.0
2015-Feb-09 11:30S 32°53' E 151°45'0 0.0
2015-Feb-09 10:30S 32°53' E 151°45'0 0.0
2015-Feb-09 09:33S 32°53' E 151°45'0 0.0
2015-Feb-09 08:30S 32°53' E 151°45'0 0.0
2015-Feb-09 07:30S 32°53' E 151°45'0 0.0
2015-Feb-09 06:30S 32°53' E 151°45'0 0.0
2015-Feb-09 05:33S 32°53' E 151°45'0 0.0
2015-Feb-09 04:30S 32°53' E 151°45'0 0.0
2015-Feb-09 03:30S 32°53' E 151°45'0 0.0
2015-Feb-09 02:33S 32°53' E 151°45'3 2.9
2015-Feb-09 01:33S 32°55' E 151°47'6 5.6
2015-Feb-09 00:33S 32°60' E 151°51'6 5.5
2015-Feb-08 23:33S 32°58' E 151°57'9 8.8
2015-Feb-08 22:33S 32°56' E 152°08'1212.0
2015-Feb-08 21:33S 32°52' E 152°21'1212.4
2015-Feb-08 20:33S 32°46' E 152°34'1211.9
2015-Feb-08 19:33S 32°39' E 152°45'1312.4
2015-Feb-08 18:29S 32°26' E 152°49'1112.3
2015-Feb-08 17:33S 32°15' E 152°52'1212.3
2015-Feb-08 16:33S 32°03' E 152°56'1312.6
2015-Feb-08 15:33S 31°51' E 153°00'33712.3
2015-Feb-07 12:10S 26°19' E 154°11'2012.4
2015-Feb-07 10:31S 25°59' E 154°13'1312.1
2015-Feb-07 09:29S 25°46' E 154°13'1111.8
2015-Feb-07 08:31S 25°35' E 154°14'1211.7
2015-Feb-07 07:31S 25°23' E 154°15'  
Track history (hours):
 
Tides and Currents Weather Stations Pressure Air Temp Water Temp Dewpoint Dewpoint Depression Visibility Wind Speed Wind Dir Waves Ship Positions

Elettra

Last reported at 2015-Feb-12 07:14 UTC. Time now 2015-Feb-27 21:11 UTC.
Position S 27°46' E 154°04'.
Warning: this ship's position is 15 days out of date.

Length 254 m; draft 13.6 m.

Type: Ship. MMSI: 371188000.

Date/timePositionNaut miles runAvg speedWind from/ knotsBaromVisibWave heightAir tempDewpointWater temp
2015-Feb-12 07:14S 27°46' E 154°04'292 8.7
2015-Feb-10 21:33S 32°31' E 152°48'1010.4
2015-Feb-10 20:33S 32°41' E 152°44'1110.7
2015-Feb-10 19:33S 32°46' E 152°33'1110.6
2015-Feb-10 18:33S 32°51' E 152°22'1010.0
2015-Feb-10 17:33S 32°56' E 152°11'1010.3
2015-Feb-10 16:33S 32°57' E 151°59'9 8.0
2015-Feb-10 15:29S 32°55' E 151°49'3 3.0
2015-Feb-10 14:33S 32°54' E 151°46'1 1.3
2015-Feb-10 13:33S 32°53' E 151°45'0 0.0
2015-Feb-10 12:30S 32°53' E 151°45'0 0.0
2015-Feb-10 11:33S 32°53' E 151°45'0 0.0
2015-Feb-10 10:30S 32°53' E 151°45'0 0.0
2015-Feb-10 09:33S 32°53' E 151°45'0 0.0
2015-Feb-10 08:30S 32°53' E 151°45'0 0.0
2015-Feb-10 07:33S 32°53' E 151°45'0 0.0
2015-Feb-10 06:30S 32°53' E 151°45'0 0.0
2015-Feb-10 05:30S 32°53' E 151°45'0 0.0
2015-Feb-10 04:30S 32°53' E 151°45'0 0.0
2015-Feb-10 03:33S 32°53' E 151°45'0 0.0
2015-Feb-10 02:30S 32°53' E 151°45'0 0.0
2015-Feb-10 01:33S 32°53' E 151°45'0 0.0
2015-Feb-10 00:33S 32°53' E 151°45'0 0.0
2015-Feb-09 23:30S 32°53' E 151°45'0 0.0
2015-Feb-09 22:33S 32°53' E 151°45'0 0.0
2015-Feb-09 21:33S 32°53' E 151°45'0 0.0
2015-Feb-09 20:33S 32°53' E 151°45'0 0.0
2015-Feb-09 19:30S 32°53' E 151°45'0 0.0
2015-Feb-09 18:30S 32°53' E 151°45'0 0.0
2015-Feb-09 17:33S 32°53' E 151°45'0 0.0
2015-Feb-09 16:33S 32°53' E 151°45'0 0.0
2015-Feb-09 15:33S 32°53' E 151°45'0 0.0
2015-Feb-09 14:30S 32°53' E 151°45'0 0.0
2015-Feb-09 13:30S 32°53' E 151°45'0 0.0
2015-Feb-09 12:33S 32°53' E 151°45'0 0.0
2015-Feb-09 11:30S 32°53' E 151°45'0 0.0
2015-Feb-09 10:30S 32°53' E 151°45'0 0.0
2015-Feb-09 09:33S 32°53' E 151°45'0 0.0
2015-Feb-09 08:30S 32°53' E 151°45'0 0.0
2015-Feb-09 07:30S 32°53' E 151°45'0 0.0
2015-Feb-09 06:30S 32°53' E 151°45'0 0.0
2015-Feb-09 05:33S 32°53' E 151°45'0 0.0
2015-Feb-09 04:30S 32°53' E 151°45'0 0.0
2015-Feb-09 03:30S 32°53' E 151°45'0 0.0
2015-Feb-09 02:33S 32°53' E 151°45'3 2.9
2015-Feb-09 01:33S 32°55' E 151°47'6 5.6
2015-Feb-09 00:33S 32°60' E 151°51'6 5.5
2015-Feb-08 23:33S 32°58' E 151°57'9 8.8
2015-Feb-08 22:33S 32°56' E 152°08'1212.0
2015-Feb-08 21:33S 32°52' E 152°21'1212.4
2015-Feb-08 20:33S 32°46' E 152°34'1211.9
2015-Feb-08 19:33S 32°39' E 152°45'1312.4
2015-Feb-08 18:29S 32°26' E 152°49'1112.3
2015-Feb-08 17:33S 32°15' E 152°52'1212.3
2015-Feb-08 16:33S 32°03' E 152°56'1312.6
2015-Feb-08 15:33S 31°51' E 153°00'33712.3
2015-Feb-07 12:10S 26°19' E 154°11'2012.4
2015-Feb-07 10:31S 25°59' E 154°13'1312.1
2015-Feb-07 09:29S 25°46' E 154°13'1111.8
2015-Feb-07 08:31S 25°35' E 154°14'1211.7
2015-Feb-07 07:31S 25°23' E 154°15'  

Dump ship's entire track history